sensor_id;sensor_type;location;lat;lon;timestamp;pressure;altitude;pressure_sealevel;temperature;humidity
19457;BME280;9867;48.094;11.478;2023-04-29T00:01:31;94840.97;;;10.11;100.00
19457;BME280;9867;48.094;11.478;2023-04-29T00:03:59;94840.97;;;10.05;100.00
19457;BME280;9867;48.094;11.478;2023-04-29T00:06:27;94836.84;;;10.04;100.00
19457;BME280;9867;48.094;11.478;2023-04-29T00:08:56;94834.09;;;10.05;100.00
19457;BME280;9867;48.094;11.478;2023-04-29T00:11:25;94837.22;;;10.14;100.00
19457;BME280;9867;48.094;11.478;2023-04-29T00:13:53;94828.75;;;10.13;100.00
19457;BME280;9867;48.094;11.478;2023-04-29T00:16:21;94836.00;;;10.16;100.00
19457;BME280;9867;48.094;11.478;2023-04-29T00:18:49;94831.09;;;10.28;100.00
19457;BME280;9867;48.094;11.478;2023-04-29T00:21:16;94824.97;;;10.29;100.00
19457;BME280;9867;48.094;11.478;2023-04-29T00:23:44;94827.94;;;10.26;100.00
19457;BME280;9867;48.094;11.478;2023-04-29T00:26:12;94826.97;;;10.27;100.00
19457;BME280;9867;48.094;11.478;2023-04-29T00:28:46;94826.75;;;10.29;100.00
19457;BME280;9867;48.094;11.478;2023-04-29T00:31:14;94829.53;;;10.27;100.00
19457;BME280;9867;48.094;11.478;2023-04-29T00:33:42;94827.97;;;10.19;100.00
19457;BME280;9867;48.094;11.478;2023-04-29T00:36:10;94826.16;;;10.27;100.00
19457;BME280;9867;48.094;11.478;2023-04-29T00:38:37;94835.66;;;10.19;100.00
19457;BME280;9867;48.094;11.478;2023-04-29T00:41:05;94824.97;;;10.16;100.00
19457;BME280;9867;48.094;11.478;2023-04-29T00:43:33;94813.19;;;10.15;100.00
19457;BME280;9867;48.094;11.478;2023-04-29T00:46:02;94814.94;;;10.21;100.00
19457;BME280;9867;48.094;11.478;2023-04-29T00:48:30;94814.72;;;10.29;100.00
19457;BME280;9867;48.094;11.478;2023-04-29T00:50:58;94823.22;;;10.30;100.00
19457;BME280;9867;48.094;11.478;2023-04-29T00:53:26;94816.91;;;10.32;100.00
19457;BME280;9867;48.094;11.478;2023-04-29T00:55:55;94811.19;;;10.30;100.00
19457;BME280;9867;48.094;11.478;2023-04-29T00:58:23;94811.38;;;10.29;100.00
19457;BME280;9867;48.094;11.478;2023-04-29T01:00:58;94813.94;;;10.29;100.00
19457;BME280;9867;48.094;11.478;2023-04-29T01:03:29;94810.38;;;10.30;100.00
19457;BME280;9867;48.094;11.478;2023-04-29T01:06:07;94809.19;;;10.32;100.00
19457;BME280;9867;48.094;11.478;2023-04-29T01:08:45;94800.53;;;10.33;100.00
19457;BME280;9867;48.094;11.478;2023-04-29T01:11:22;94808.41;;;10.32;100.00
19457;BME280;9867;48.094;11.478;2023-04-29T01:13:57;94814.31;;;10.39;100.00
19457;BME280;9867;48.094;11.478;2023-04-29T01:16:29;94814.31;;;10.39;100.00
19457;BME280;9867;48.094;11.478;2023-04-29T01:19:26;94811.13;;;10.43;100.00
19457;BME280;9867;48.094;11.478;2023-04-29T01:22:00;94809.53;;;10.42;100.00
19457;BME280;9867;48.094;11.478;2023-04-29T01:24:30;94806.19;;;10.42;100.00
19457;BME280;9867;48.094;11.478;2023-04-29T01:27:03;94809.94;;;10.46;100.00
19457;BME280;9867;48.094;11.478;2023-04-29T01:29:47;94816.44;;;10.42;100.00
19457;BME280;9867;48.094;11.478;2023-04-29T01:32:25;94804.00;;;10.45;100.00
19457;BME280;9867;48.094;11.478;2023-04-29T01:35:03;94798.50;;;10.42;100.00
19457;BME280;9867;48.094;11.478;2023-04-29T01:37:40;94804.59;;;10.47;100.00
19457;BME280;9867;48.094;11.478;2023-04-29T01:40:17;94804.19;;;10.50;100.00
19457;BME280;9867;48.094;11.478;2023-04-29T01:43:00;94801.63;;;10.50;100.00
19457;BME280;9867;48.094;11.478;2023-04-29T01:45:31;94797.66;;;10.61;100.00
19457;BME280;9867;48.094;11.478;2023-04-29T01:48:01;94804.72;;;10.66;100.00
19457;BME280;9867;48.094;11.478;2023-04-29T01:50:30;94797.00;;;10.66;100.00
19457;BME280;9867;48.094;11.478;2023-04-29T01:53:06;94804.09;;;10.70;100.00
19457;BME280;9867;48.094;11.478;2023-04-29T01:55:36;94803.50;;;10.68;100.00
19457;BME280;9867;48.094;11.478;2023-04-29T01:58:26;94799.16;;;10.69;100.00
19457;BME280;9867;48.094;11.478;2023-04-29T02:00:55;94805.25;;;10.74;100.00
19457;BME280;9867;48.094;11.478;2023-04-29T02:03:25;94802.09;;;10.79;100.00
19457;BME280;9867;48.094;11.478;2023-04-29T02:05:55;94810.13;;;10.89;100.00
19457;BME280;9867;48.094;11.478;2023-04-29T02:08:23;94803.16;;;10.96;100.00
19457;BME280;9867;48.094;11.478;2023-04-29T02:10:54;94810.25;;;11.01;100.00
19457;BME280;9867;48.094;11.478;2023-04-29T02:13:41;94816.19;;;11.01;100.00
19457;BME280;9867;48.094;11.478;2023-04-29T02:16:11;94815.38;;;11.01;100.00
19457;BME280;9867;48.094;11.478;2023-04-29T02:18:43;94815.38;;;11.01;100.00
19457;BME280;9867;48.094;11.478;2023-04-29T02:21:11;94811.25;;;11.00;100.00
19457;BME280;9867;48.094;11.478;2023-04-29T02:23:39;94809.50;;;10.93;100.00
19457;BME280;9867;48.094;11.478;2023-04-29T02:26:08;94808.88;;;10.98;100.00
19457;BME280;9867;48.094;11.478;2023-04-29T02:28:36;94808.69;;;11.00;100.00
19457;BME280;9867;48.094;11.478;2023-04-29T02:31:04;94807.50;;;11.02;100.00
19457;BME280;9867;48.094;11.478;2023-04-29T02:33:32;94809.44;;;11.07;100.00
19457;BME280;9867;48.094;11.478;2023-04-29T02:36:00;94814.97;;;11.04;100.00
19457;BME280;9867;48.094;11.478;2023-04-29T02:38:28;94801.75;;;11.07;100.00
19457;BME280;9867;48.094;11.478;2023-04-29T02:40:56;94806.09;;;11.06;100.00
19457;BME280;9867;48.094;11.478;2023-04-29T02:43:25;94812.16;;;11.12;100.00
19457;BME280;9867;48.094;11.478;2023-04-29T02:45:57;94810.06;;;11.02;100.00
19457;BME280;9867;48.094;11.478;2023-04-29T02:48:26;94805.34;;;10.99;100.00
19457;BME280;9867;48.094;11.478;2023-04-29T02:50:53;94814.03;;;10.98;100.00
19457;BME280;9867;48.094;11.478;2023-04-29T02:53:21;94816.63;;;10.91;100.00
19457;BME280;9867;48.094;11.478;2023-04-29T02:55:49;94813.22;;;10.98;100.00
19457;BME280;9867;48.094;11.478;2023-04-29T02:58:17;94813.66;;;10.94;100.00
19457;BME280;9867;48.094;11.478;2023-04-29T03:00:46;94816.63;;;10.91;100.00
19457;BME280;9867;48.094;11.478;2023-04-29T03:03:14;94826.09;;;10.91;100.00
19457;BME280;9867;48.094;11.478;2023-04-29T03:05:43;94811.66;;;10.97;100.00
19457;BME280;9867;48.094;11.478;2023-04-29T03:08:11;94813.00;;;11.06;100.00
19457;BME280;9867;48.094;11.478;2023-04-29T03:10:38;94819.91;;;11.05;100.00
19457;BME280;9867;48.094;11.478;2023-04-29T03:13:07;94816.28;;;11.13;100.00
19457;BME280;9867;48.094;11.478;2023-04-29T03:15:36;94813.38;;;11.09;100.00
19457;BME280;9867;48.094;11.478;2023-04-29T03:18:06;94816.66;;;11.16;100.00
19457;BME280;9867;48.094;11.478;2023-04-29T03:20:35;94819.44;;;11.15;100.00
19457;BME280;9867;48.094;11.478;2023-04-29T03:23:03;94817.66;;;11.15;100.00
19457;BME280;9867;48.094;11.478;2023-04-29T03:25:31;94809.78;;;11.10;100.00
19457;BME280;9867;48.094;11.478;2023-04-29T03:27:59;94819.28;;;11.10;100.00
19457;BME280;9867;48.094;11.478;2023-04-29T03:30:29;94806.47;;;11.10;100.00
19457;BME280;9867;48.094;11.478;2023-04-29T03:32:57;94815.72;;;11.11;100.00
19457;BME280;9867;48.094;11.478;2023-04-29T03:35:29;94807.81;;;11.12;100.00
19457;BME280;9867;48.094;11.478;2023-04-29T03:38:17;94811.03;;;11.33;100.00
19457;BME280;9867;48.094;11.478;2023-04-29T03:40:46;94818.38;;;11.29;100.00
19457;BME280;9867;48.094;11.478;2023-04-29T03:43:15;94813.97;;;11.36;100.00
19457;BME280;9867;48.094;11.478;2023-04-29T03:45:45;94820.25;;;11.40;100.00
19457;BME280;9867;48.094;11.478;2023-04-29T03:48:17;94823.19;;;11.44;100.00
19457;BME280;9867;48.094;11.478;2023-04-29T03:50:46;94817.69;;;11.40;100.00
19457;BME280;9867;48.094;11.478;2023-04-29T03:53:14;94823.44;;;11.36;100.00
19457;BME280;9867;48.094;11.478;2023-04-29T03:55:42;94813.38;;;11.34;100.00
19457;BME280;9867;48.094;11.478;2023-04-29T03:58:10;94813.63;;;11.33;100.00
19457;BME280;9867;48.094;11.478;2023-04-29T04:00:38;94801.59;;;11.26;100.00
19457;BME280;9867;48.094;11.478;2023-04-29T04:03:11;94819.53;;;11.33;100.00
19457;BME280;9867;48.094;11.478;2023-04-29T04:05:39;94818.88;;;11.38;100.00
19457;BME280;9867;48.094;11.478;2023-04-29T04:08:12;94815.53;;;11.37;100.00
19457;BME280;9867;48.094;11.478;2023-04-29T04:10:50;94812.19;;;11.37;100.00
19457;BME280;9867;48.094;11.478;2023-04-29T04:13:40;94824.41;;;11.41;100.00
19457;BME280;9867;48.094;11.478;2023-04-29T04:16:09;94817.28;;;11.43;100.00
19457;BME280;9867;48.094;11.478;2023-04-29T04:18:38;94821.59;;;11.49;100.00
19457;BME280;9867;48.094;11.478;2023-04-29T04:21:06;94829.66;;;11.53;100.00
19457;BME280;9867;48.094;11.478;2023-04-29T04:23:37;94837.78;;;11.50;100.00
19457;BME280;9867;48.094;11.478;2023-04-29T04:26:08;94841.03;;;11.63;100.00
19457;BME280;9867;48.094;11.478;2023-04-29T04:28:54;94843.97;;;11.67;100.00
19457;BME280;9867;48.094;11.478;2023-04-29T04:31:34;94848.09;;;11.68;100.00
19457;BME280;9867;48.094;11.478;2023-04-29T04:34:02;94850.94;;;11.60;100.00
19457;BME280;9867;48.094;11.478;2023-04-29T04:36:31;94841.44;;;11.60;100.00
19457;BME280;9867;48.094;11.478;2023-04-29T04:39:01;94849.50;;;11.64;100.00
19457;BME280;9867;48.094;11.478;2023-04-29T04:41:30;94844.16;;;11.66;100.00
19457;BME280;9867;48.094;11.478;2023-04-29T04:43:59;94849.03;;;11.80;100.00
19457;BME280;9867;48.094;11.478;2023-04-29T04:46:47;94861.41;;;11.90;100.00
19457;BME280;9867;48.094;11.478;2023-04-29T04:49:31;94857.25;;;11.89;100.00
19457;BME280;9867;48.094;11.478;2023-04-29T04:51:59;94866.69;;;11.95;100.00
19457;BME280;9867;48.094;11.478;2023-04-29T04:54:28;94868.94;;;12.10;100.00
19457;BME280;9867;48.094;11.478;2023-04-29T04:57:05;94864.72;;;12.15;100.00
19457;BME280;9867;48.094;11.478;2023-04-29T04:59:33;94862.22;;;12.09;100.00
19457;BME280;9867;48.094;11.478;2023-04-29T05:02:01;94870.28;;;12.12;100.00
19457;BME280;9867;48.094;11.478;2023-04-29T05:04:29;94869.03;;;12.21;100.00
19457;BME280;9867;48.094;11.478;2023-04-29T05:06:57;94869.53;;;12.30;100.00
19457;BME280;9867;48.094;11.478;2023-04-29T05:09:32;94870.75;;;12.27;100.00
19457;BME280;9867;48.094;11.478;2023-04-29T05:12:00;94876.59;;;12.16;100.00
19457;BME280;9867;48.094;11.478;2023-04-29T05:14:30;94866.03;;;12.24;100.00
19457;BME280;9867;48.094;11.478;2023-04-29T05:16:58;94882.16;;;12.32;100.00
19457;BME280;9867;48.094;11.478;2023-04-29T05:19:26;94872.66;;;12.32;100.00
19457;BME280;9867;48.094;11.478;2023-04-29T05:21:54;94887.09;;;12.33;100.00
19457;BME280;9867;48.094;11.478;2023-04-29T05:24:22;94884.84;;;12.43;100.00
19457;BME280;9867;48.094;11.478;2023-04-29T05:26:52;94882.13;;;12.38;100.00
19457;BME280;9867;48.094;11.478;2023-04-29T05:29:20;94896.28;;;12.47;100.00
19457;BME280;9867;48.094;11.478;2023-04-29T05:31:53;94891.41;;;12.57;100.00
19457;BME280;9867;48.094;11.478;2023-04-29T05:34:22;94899.06;;;12.64;100.00
19457;BME280;9867;48.094;11.478;2023-04-29T05:36:51;94901.84;;;12.62;100.00
19457;BME280;9867;48.094;11.478;2023-04-29T05:39:19;94906.41;;;12.60;100.00
19457;BME280;9867;48.094;11.478;2023-04-29T05:41:56;94901.22;;;12.67;100.00
19457;BME280;9867;48.094;11.478;2023-04-29T05:44:34;94899.28;;;12.62;100.00
19457;BME280;9867;48.094;11.478;2023-04-29T05:47:04;94914.44;;;12.71;100.00
19457;BME280;9867;48.094;11.478;2023-04-29T05:49:32;94919.38;;;12.90;100.00
19457;BME280;9867;48.094;11.478;2023-04-29T05:52:00;94915.78;;;12.91;100.00
19457;BME280;9867;48.094;11.478;2023-04-29T05:54:36;94928.50;;;13.05;100.00
19457;BME280;9867;48.094;11.478;2023-04-29T05:57:06;94920.81;;;13.35;100.00
19457;BME280;9867;48.094;11.478;2023-04-29T05:59:35;94922.88;;;13.44;100.00
19457;BME280;9867;48.094;11.478;2023-04-29T06:02:04;94930.06;;;13.42;100.00
19457;BME280;9867;48.094;11.478;2023-04-29T06:04:34;94935.28;;;13.65;100.00
19457;BME280;9867;48.094;11.478;2023-04-29T06:07:16;94938.28;;;13.62;100.00
19457;BME280;9867;48.094;11.478;2023-04-29T06:09:54;94936.22;;;13.53;100.00
19457;BME280;9867;48.094;11.478;2023-04-29T06:12:25;94931.47;;;13.38;100.00
19457;BME280;9867;48.094;11.478;2023-04-29T06:14:53;94929.28;;;13.23;100.00
19457;BME280;9867;48.094;11.478;2023-04-29T06:17:21;94929.50;;;13.04;100.00
19457;BME280;9867;48.094;11.478;2023-04-29T06:19:50;94933.34;;;13.13;100.00
19457;BME280;9867;48.094;11.478;2023-04-29T06:22:19;94929.28;;;13.05;100.00
19457;BME280;9867;48.094;11.478;2023-04-29T06:24:49;94938.78;;;13.05;100.00
19457;BME280;9867;48.094;11.478;2023-04-29T06:27:39;94947.81;;;13.14;100.00
19457;BME280;9867;48.094;11.478;2023-04-29T06:30:08;94955.91;;;13.36;100.00
19457;BME280;9867;48.094;11.478;2023-04-29T06:32:37;94959.06;;;13.68;100.00
19457;BME280;9867;48.094;11.478;2023-04-29T06:35:07;94967.09;;;13.59;100.00
19457;BME280;9867;48.094;11.478;2023-04-29T06:37:49;94967.41;;;13.93;100.00
19457;BME280;9867;48.094;11.478;2023-04-29T06:40:36;94972.09;;;13.96;100.00
19457;BME280;9867;48.094;11.478;2023-04-29T06:43:26;94974.81;;;14.01;100.00
19457;BME280;9867;48.094;11.478;2023-04-29T06:46:12;94980.91;;;13.77;100.00
19457;BME280;9867;48.094;11.478;2023-04-29T06:48:59;94982.97;;;13.86;100.00
19457;BME280;9867;48.094;11.478;2023-04-29T06:51:27;94977.41;;;13.71;100.00
19457;BME280;9867;48.094;11.478;2023-04-29T06:53:57;94971.16;;;13.67;100.00
19457;BME280;9867;48.094;11.478;2023-04-29T06:56:25;94985.78;;;13.55;100.00
19457;BME280;9867;48.094;11.478;2023-04-29T06:58:54;94976.53;;;13.47;100.00
19457;BME280;9867;48.094;11.478;2023-04-29T07:01:22;94982.34;;;13.61;100.00
19457;BME280;9867;48.094;11.478;2023-04-29T07:03:50;94994.38;;;13.79;100.00
19457;BME280;9867;48.094;11.478;2023-04-29T07:06:18;94982.41;;;13.84;100.00
19457;BME280;9867;48.094;11.478;2023-04-29T07:08:46;94988.19;;;14.10;100.00
19457;BME280;9867;48.094;11.478;2023-04-29T07:11:14;94990.69;;;14.28;100.00
19457;BME280;9867;48.094;11.478;2023-04-29T07:13:42;94993.88;;;14.53;100.00
19457;BME280;9867;48.094;11.478;2023-04-29T07:16:17;95003.66;;;14.86;100.00
19457;BME280;9867;48.094;11.478;2023-04-29T07:18:47;94998.38;;;14.58;100.00
19457;BME280;9867;48.094;11.478;2023-04-29T07:21:15;94991.75;;;14.62;100.00
19457;BME280;9867;48.094;11.478;2023-04-29T07:23:43;94996.44;;;14.65;100.00
19457;BME280;9867;48.094;11.478;2023-04-29T07:26:13;94990.84;;;14.68;100.00
19457;BME280;9867;48.094;11.478;2023-04-29T07:28:44;94991.50;;;14.52;100.00
19457;BME280;9867;48.094;11.478;2023-04-29T07:31:12;95005.22;;;14.64;100.00
19457;BME280;9867;48.094;11.478;2023-04-29T07:33:43;94977.69;;;14.70;100.00
19457;BME280;9867;48.094;11.478;2023-04-29T07:36:12;94996.69;;;14.63;100.00
19457;BME280;9867;48.094;11.478;2023-04-29T07:38:40;95000.28;;;14.86;100.00
19457;BME280;9867;48.094;11.478;2023-04-29T07:41:08;95011.50;;;14.68;100.00
19457;BME280;9867;48.094;11.478;2023-04-29T07:43:36;95005.09;;;14.82;100.00
19457;BME280;9867;48.094;11.478;2023-04-29T07:46:08;95007.41;;;15.19;100.00
19457;BME280;9867;48.094;11.478;2023-04-29T07:48:37;95013.97;;;15.10;100.00
19457;BME280;9867;48.094;11.478;2023-04-29T07:51:11;95010.91;;;14.89;100.00
19457;BME280;9867;48.094;11.478;2023-04-29T07:53:41;95012.38;;;14.97;100.00
19457;BME280;9867;48.094;11.478;2023-04-29T07:56:09;94991.72;;;14.97;100.00
19457;BME280;9867;48.094;11.478;2023-04-29T07:58:38;95021.44;;;15.23;100.00
19457;BME280;9867;48.094;11.478;2023-04-29T08:01:07;95016.78;;;15.48;100.00
19457;BME280;9867;48.094;11.478;2023-04-29T08:03:39;95017.22;;;15.85;100.00
19457;BME280;9867;48.094;11.478;2023-04-29T08:06:10;95029.81;;;15.53;100.00
19457;BME280;9867;48.094;11.478;2023-04-29T08:08:40;95026.66;;;15.11;100.00
19457;BME280;9867;48.094;11.478;2023-04-29T08:11:14;95022.50;;;15.10;100.00
19457;BME280;9867;48.094;11.478;2023-04-29T08:13:42;95022.97;;;15.47;100.00
19457;BME280;9867;48.094;11.478;2023-04-29T08:16:10;95028.81;;;16.11;100.00
19457;BME280;9867;48.094;11.478;2023-04-29T08:18:39;95029.22;;;16.36;100.00
19457;BME280;9867;48.094;11.478;2023-04-29T08:21:07;95034.03;;;16.28;100.00
19457;BME280;9867;48.094;11.478;2023-04-29T08:23:38;95031.38;;;15.94;100.00
19457;BME280;9867;48.094;11.478;2023-04-29T08:26:09;95032.28;;;15.48;100.00
19457;BME280;9867;48.094;11.478;2023-04-29T08:28:38;95018.06;;;15.34;100.00
19457;BME280;9867;48.094;11.478;2023-04-29T08:31:06;95026.91;;;15.38;100.00
19457;BME280;9867;48.094;11.478;2023-04-29T08:33:36;95029.09;;;15.18;100.00
19457;BME280;9867;48.094;11.478;2023-04-29T08:36:04;95027.88;;;15.09;100.00
19457;BME280;9867;48.094;11.478;2023-04-29T08:38:34;95010.84;;;14.84;100.00
19457;BME280;9867;48.094;11.478;2023-04-29T08:41:06;95027.41;;;15.12;100.00
19457;BME280;9867;48.094;11.478;2023-04-29T08:43:35;95032.78;;;15.33;100.00
19457;BME280;9867;48.094;11.478;2023-04-29T08:46:03;95039.53;;;15.34;100.00
19457;BME280;9867;48.094;11.478;2023-04-29T08:48:32;95037.34;;;15.43;100.00
19457;BME280;9867;48.094;11.478;2023-04-29T08:51:01;95022.03;;;15.65;100.00
19457;BME280;9867;48.094;11.478;2023-04-29T08:53:29;95038.47;;;15.87;100.00
19457;BME280;9867;48.094;11.478;2023-04-29T08:56:01;95042.41;;;15.90;100.00
19457;BME280;9867;48.094;11.478;2023-04-29T08:58:33;95038.69;;;16.14;100.00
19457;BME280;9867;48.094;11.478;2023-04-29T09:01:05;95041.56;;;16.29;100.00
19457;BME280;9867;48.094;11.478;2023-04-29T09:03:41;95041.09;;;16.49;100.00
19457;BME280;9867;48.094;11.478;2023-04-29T09:06:10;95043.28;;;16.57;100.00
19457;BME280;9867;48.094;11.478;2023-04-29T09:08:38;95040.28;;;16.32;100.00
19457;BME280;9867;48.094;11.478;2023-04-29T09:11:08;95031.41;;;16.11;100.00
19457;BME280;9867;48.094;11.478;2023-04-29T09:13:38;95043.31;;;16.12;100.00
19457;BME280;9867;48.094;11.478;2023-04-29T09:16:09;95027.06;;;16.00;100.00
19457;BME280;9867;48.094;11.478;2023-04-29T09:18:43;95046.00;;;15.89;100.00
19457;BME280;9867;48.094;11.478;2023-04-29T09:21:16;95030.81;;;15.92;100.00
19457;BME280;9867;48.094;11.478;2023-04-29T09:23:49;95029.22;;;16.36;100.00
19457;BME280;9867;48.094;11.478;2023-04-29T09:26:17;95045.59;;;16.70;100.00
19457;BME280;9867;48.094;11.478;2023-04-29T09:28:46;95012.38;;;16.67;100.00
19457;BME280;9867;48.094;11.478;2023-04-29T09:31:26;95024.53;;;17.00;100.00
19457;BME280;9867;48.094;11.478;2023-04-29T09:33:55;95028.47;;;17.47;100.00
19457;BME280;9867;48.094;11.478;2023-04-29T09:36:41;95023.38;;;17.13;100.00
19457;BME280;9867;48.094;11.478;2023-04-29T09:39:12;95030.81;;;17.26;100.00
19457;BME280;9867;48.094;11.478;2023-04-29T09:41:55;95026.03;;;16.80;100.00
19457;BME280;9867;48.094;11.478;2023-04-29T09:44:28;95022.53;;;16.69;100.00
19457;BME280;9867;48.094;11.478;2023-04-29T09:47:01;95032.22;;;16.62;100.00
19457;BME280;9867;48.094;11.478;2023-04-29T09:49:31;95026.78;;;16.13;100.00
19457;BME280;9867;48.094;11.478;2023-04-29T09:52:02;95033.72;;;16.24;100.00
19457;BME280;9867;48.094;11.478;2023-04-29T09:54:31;95051.03;;;16.57;100.00
19457;BME280;9867;48.094;11.478;2023-04-29T09:57:00;95039.03;;;17.01;100.00
19457;BME280;9867;48.094;11.478;2023-04-29T09:59:34;95039.44;;;17.32;100.00
19457;BME280;9867;48.094;11.478;2023-04-29T10:02:06;95038.47;;;17.38;100.00
19457;BME280;9867;48.094;11.478;2023-04-29T10:04:39;95036.16;;;16.98;100.00
19457;BME280;9867;48.094;11.478;2023-04-29T10:07:08;95040.72;;;16.91;100.00
19457;BME280;9867;48.094;11.478;2023-04-29T10:09:41;95037.72;;;16.82;100.00
19457;BME280;9867;48.094;11.478;2023-04-29T10:12:14;95037.03;;;16.70;100.00
19457;BME280;9867;48.094;11.478;2023-04-29T10:14:47;95030.75;;;16.49;100.00
19457;BME280;9867;48.094;11.478;2023-04-29T10:17:22;95036.63;;;16.45;100.00
19457;BME280;9867;48.094;11.478;2023-04-29T10:19:55;95039.63;;;16.53;100.00
19457;BME280;9867;48.094;11.478;2023-04-29T10:22:28;95024.31;;;16.52;100.00
19457;BME280;9867;48.094;11.478;2023-04-29T10:25:00;95033.44;;;16.71;100.00
19457;BME280;9867;48.094;11.478;2023-04-29T10:27:31;95027.50;;;16.92;100.00
19457;BME280;9867;48.094;11.478;2023-04-29T10:30:01;95033.69;;;17.52;100.00
19457;BME280;9867;48.094;11.478;2023-04-29T10:32:31;95034.06;;;17.82;100.00
19457;BME280;9867;48.094;11.478;2023-04-29T10:35:17;95011.56;;;17.88;100.00
19457;BME280;9867;48.094;11.478;2023-04-29T10:37:46;95035.75;;;17.28;100.00
19457;BME280;9867;48.094;11.478;2023-04-29T10:40:16;95022.38;;;17.36;100.00
19457;BME280;9867;48.094;11.478;2023-04-29T10:42:48;95027.13;;;17.00;100.00
19457;BME280;9867;48.094;11.478;2023-04-29T10:45:18;95030.41;;;16.96;100.00
19457;BME280;9867;48.094;11.478;2023-04-29T10:48:15;95017.34;;;17.08;100.00
19457;BME280;9867;48.094;11.478;2023-04-29T10:51:00;95017.28;;;17.24;100.00
19457;BME280;9867;48.094;11.478;2023-04-29T10:53:31;95025.34;;;17.23;100.00
19457;BME280;9867;48.094;11.478;2023-04-29T10:56:05;95027.72;;;17.51;100.00
19457;BME280;9867;48.094;11.478;2023-04-29T10:58:35;95021.00;;;16.90;100.00
19457;BME280;9867;48.094;11.478;2023-04-29T11:01:05;95032.44;;;16.60;100.00
19457;BME280;9867;48.094;11.478;2023-04-29T11:03:50;95030.38;;;16.12;100.00
19457;BME280;9867;48.094;11.478;2023-04-29T11:06:22;95016.06;;;15.93;100.00
19457;BME280;9867;48.094;11.478;2023-04-29T11:09:01;95018.75;;;15.98;100.00
19457;BME280;9867;48.094;11.478;2023-04-29T11:11:58;95022.28;;;16.70;100.00
19457;BME280;9867;48.094;11.478;2023-04-29T11:14:30;95022.50;;;17.46;100.00
19457;BME280;9867;48.094;11.478;2023-04-29T11:17:01;95015.50;;;17.47;100.00
19457;BME280;9867;48.094;11.478;2023-04-29T11:19:31;95039.72;;;17.14;100.00
19457;BME280;9867;48.094;11.478;2023-04-29T11:22:23;95035.56;;;16.74;100.00
19457;BME280;9867;48.094;11.478;2023-04-29T11:24:53;95019.81;;;16.97;100.00
19457;BME280;9867;48.094;11.478;2023-04-29T11:27:23;95028.25;;;16.71;100.00
19457;BME280;9867;48.094;11.478;2023-04-29T11:29:53;95026.56;;;16.98;100.00
19457;BME280;9867;48.094;11.478;2023-04-29T11:32:28;95023.69;;;17.60;100.00
19457;BME280;9867;48.094;11.478;2023-04-29T11:35:06;95023.91;;;18.02;100.00
19457;BME280;9867;48.094;11.478;2023-04-29T11:37:34;95016.06;;;17.70;100.00
19457;BME280;9867;48.094;11.478;2023-04-29T11:40:04;95014.81;;;17.78;100.00
19457;BME280;9867;48.094;11.478;2023-04-29T11:42:33;95042.03;;;17.76;100.00
19457;BME280;9867;48.094;11.478;2023-04-29T11:45:01;95013.72;;;17.52;100.00
19457;BME280;9867;48.094;11.478;2023-04-29T11:47:31;95028.78;;;17.99;100.00
19457;BME280;9867;48.094;11.478;2023-04-29T11:50:03;95040.31;;;18.35;100.00
19457;BME280;9867;48.094;11.478;2023-04-29T11:52:31;95042.94;;;18.40;100.00
19457;BME280;9867;48.094;11.478;2023-04-29T11:54:59;95061.88;;;18.35;100.00
19457;BME280;9867;48.094;11.478;2023-04-29T11:57:27;95036.78;;;17.92;100.00
19457;BME280;9867;48.094;11.478;2023-04-29T11:59:56;95041.03;;;17.77;100.00
19457;BME280;9867;48.094;11.478;2023-04-29T12:02:28;95042.56;;;17.34;100.00
19457;BME280;9867;48.094;11.478;2023-04-29T12:04:58;95035.59;;;17.78;100.00
19457;BME280;9867;48.094;11.478;2023-04-29T12:07:28;95033.09;;;17.88;100.00
19457;BME280;9867;48.094;11.478;2023-04-29T12:09:56;95041.06;;;17.38;100.00
19457;BME280;9867;48.094;11.478;2023-04-29T12:12:25;95044.03;;;17.47;100.00
19457;BME280;9867;48.094;11.478;2023-04-29T12:14:54;95033.06;;;17.83;100.00
19457;BME280;9867;48.094;11.478;2023-04-29T12:17:23;95042.00;;;18.24;100.00
19457;BME280;9867;48.094;11.478;2023-04-29T12:19:51;95046.41;;;18.24;100.00
19457;BME280;9867;48.094;11.478;2023-04-29T12:22:20;95028.13;;;18.09;100.00
19457;BME280;9867;48.094;11.478;2023-04-29T12:24:51;95038.75;;;18.07;100.00
19457;BME280;9867;48.094;11.478;2023-04-29T12:27:20;95039.16;;;18.26;100.00
19457;BME280;9867;48.094;11.478;2023-04-29T12:29:50;95034.47;;;17.96;100.00
19457;BME280;9867;48.094;11.478;2023-04-29T12:32:22;95053.13;;;17.66;100.00
19457;BME280;9867;48.094;11.478;2023-04-29T12:34:51;95045.97;;;17.56;100.00
19457;BME280;9867;48.094;11.478;2023-04-29T12:37:21;95031.81;;;17.25;100.00
19457;BME280;9867;48.094;11.478;2023-04-29T12:39:49;95029.59;;;17.34;100.00
19457;BME280;9867;48.094;11.478;2023-04-29T12:42:18;95035.78;;;17.98;100.00
19457;BME280;9867;48.094;11.478;2023-04-29T12:44:46;95037.75;;;19.09;100.00
19457;BME280;9867;48.094;11.478;2023-04-29T12:47:15;95040.94;;;19.26;100.00
19457;BME280;9867;48.094;11.478;2023-04-29T12:49:44;95040.97;;;18.84;100.00
19457;BME280;9867;48.094;11.478;2023-04-29T12:52:15;95056.69;;;18.09;100.00
19457;BME280;9867;48.094;11.478;2023-04-29T12:54:44;95045.34;;;17.66;100.00
19457;BME280;9867;48.094;11.478;2023-04-29T12:57:12;95042.53;;;17.94;100.00
19457;BME280;9867;48.094;11.478;2023-04-29T12:59:40;95042.84;;;18.30;100.00
19457;BME280;9867;48.094;11.478;2023-04-29T13:02:08;95044.75;;;18.39;100.00
19457;BME280;9867;48.094;11.478;2023-04-29T13:04:36;95048.47;;;18.22;100.00
19457;BME280;9867;48.094;11.478;2023-04-29T13:07:05;95042.22;;;18.18;100.00
19457;BME280;9867;48.094;11.478;2023-04-29T13:09:33;95054.66;;;17.89;100.00
19457;BME280;9867;48.094;11.478;2023-04-29T13:12:05;95059.16;;;17.98;100.00